createdAt,value
2018-03-26T00:00:09.061Z,23.10
2018-03-26T00:02:36.917Z,27.20
2018-03-26T00:05:04.769Z,23.37
2018-03-26T00:07:32.618Z,21.60
2018-03-26T00:10:00.472Z,23.27
2018-03-26T00:12:28.222Z,23.67
2018-03-26T00:14:56.070Z,25.80
2018-03-26T00:17:23.820Z,26.50
2018-03-26T00:19:51.571Z,24.77
2018-03-26T00:22:19.430Z,27.73
2018-03-26T00:24:47.273Z,24.80
2018-03-26T00:27:15.152Z,23.57
2018-03-26T00:29:43.798Z,25.03
2018-03-26T00:32:11.577Z,26.40
2018-03-26T00:34:40.221Z,25.13
2018-03-26T00:37:08.068Z,25.47
2018-03-26T00:39:35.827Z,25.17
2018-03-26T00:42:03.671Z,23.90
2018-03-26T00:44:31.420Z,25.93
2018-03-26T00:46:59.272Z,24.33
2018-03-26T00:49:27.022Z,27.40
2018-03-26T00:51:54.771Z,24.40
2018-03-26T00:54:22.628Z,25.10
2018-03-26T00:56:50.379Z,23.90
2018-03-26T00:59:18.943Z,23.90
2018-03-26T01:01:46.792Z,24.37
2018-03-26T01:04:14.644Z,27.50
2018-03-26T01:06:42.394Z,26.63
2018-03-26T01:09:10.114Z,25.77
2018-03-26T01:11:38.001Z,26.40
2018-03-26T01:14:05.849Z,23.30
2018-03-26T01:16:33.702Z,24.60
2018-03-26T01:19:01.559Z,25.80
2018-03-26T01:21:29.403Z,24.60
2018-03-26T01:23:57.256Z,27.80
2018-03-26T01:26:25.107Z,25.40
2018-03-26T01:28:52.882Z,30.30
2018-03-26T01:31:21.528Z,29.07
2018-03-26T01:33:49.278Z,27.57
2018-03-26T01:36:17.128Z,25.93
2018-03-26T01:38:44.980Z,25.20
2018-03-26T01:41:12.730Z,23.20
2018-03-26T01:43:40.580Z,28.20
2018-03-26T01:46:08.432Z,24.93
2018-03-26T01:48:36.286Z,25.10
2018-03-26T01:51:04.144Z,29.00
2018-03-26T01:53:31.991Z,25.40
2018-03-26T01:55:59.983Z,25.27
2018-03-26T01:58:27.795Z,28.00
2018-03-26T02:00:55.589Z,26.00
2018-03-26T02:03:23.398Z,25.70
2018-03-26T02:05:51.248Z,25.57
2018-03-26T02:08:19.000Z,24.87
2018-03-26T02:10:46.748Z,23.47
2018-03-26T02:13:14.598Z,26.80
2018-03-26T02:15:42.347Z,24.13
2018-03-26T02:18:10.201Z,24.90
2018-03-26T02:20:38.060Z,25.80
2018-03-26T02:23:05.907Z,24.47
2018-03-26T02:25:33.655Z,26.77
2018-03-26T02:28:01.448Z,24.70
2018-03-26T02:30:29.259Z,25.80
2018-03-26T02:32:57.110Z,25.90
2018-03-26T02:35:24.960Z,25.63
2018-03-26T02:37:52.650Z,27.13
2018-03-26T02:40:20.458Z,25.30
2018-03-26T02:42:48.213Z,24.93
2018-03-26T02:45:15.938Z,30.37
2018-03-26T02:47:43.619Z,26.67
2018-03-26T02:50:12.164Z,28.23
2018-03-26T02:52:39.894Z,27.20
2018-03-26T02:55:07.674Z,29.47
2018-03-26T02:57:35.527Z,26.90
2018-03-26T03:00:03.377Z,28.07
2018-03-26T03:02:31.229Z,25.63
2018-03-26T03:04:58.979Z,29.47
2018-03-26T03:07:26.668Z,28.10
2018-03-26T03:09:54.477Z,26.40
2018-03-26T03:12:22.225Z,25.17
2018-03-26T03:14:50.078Z,27.50
2018-03-26T03:17:17.928Z,26.50
2018-03-26T03:19:45.781Z,24.83
2018-03-26T03:22:13.531Z,25.80
2018-03-26T03:24:41.278Z,25.67
2018-03-26T03:27:09.135Z,27.93
2018-03-26T03:29:36.995Z,29.67
2018-03-26T03:32:04.787Z,33.13
2018-03-26T03:34:32.689Z,30.27
2018-03-26T03:37:00.409Z,31.37
2018-03-26T03:39:28.190Z,30.37
2018-03-26T03:41:56.039Z,29.67
2018-03-26T03:44:23.890Z,30.20
2018-03-26T03:46:51.743Z,30.90
2018-03-26T03:49:19.593Z,28.57
2018-03-26T03:51:47.446Z,27.30
2018-03-26T03:54:15.299Z,29.20
2018-03-26T03:56:43.046Z,30.20
2018-03-26T03:59:10.796Z,25.27
2018-03-26T04:01:38.753Z,24.73
2018-03-26T04:04:06.502Z,29.03
2018-03-26T04:06:34.266Z,27.30
2018-03-26T04:09:02.103Z,30.30
2018-03-26T04:11:29.956Z,26.83
2018-03-26T04:13:57.646Z,27.30
2018-03-26T04:16:25.455Z,29.90
2018-03-26T04:18:53.305Z,28.70
2018-03-26T04:21:21.156Z,30.00
2018-03-26T04:23:49.007Z,29.55
2018-03-26T04:26:16.758Z,29.80
2018-03-26T04:28:44.610Z,29.02
2018-03-26T04:31:12.358Z,24.50
2018-03-26T04:33:40.936Z,26.33
2018-03-26T04:36:08.780Z,28.20
2018-03-26T04:38:36.530Z,25.57
2018-03-26T04:41:04.381Z,29.23
2018-03-26T04:43:32.072Z,26.10
2018-03-26T04:45:59.883Z,27.13
2018-03-26T04:48:27.731Z,25.40
2018-03-26T04:50:55.586Z,29.23
2018-03-26T04:53:23.436Z,27.33
2018-03-26T04:55:51.337Z,30.10
2018-03-26T04:58:19.143Z,30.27
2018-03-26T05:00:46.824Z,27.40
2018-03-26T05:03:14.637Z,27.48
2018-03-26T05:05:42.488Z,27.85
2018-03-26T05:08:10.343Z,27.60
2018-03-26T05:10:38.207Z,25.73
2018-03-26T05:13:06.049Z,27.37
2018-03-26T05:15:33.928Z,29.90
2018-03-26T05:18:02.569Z,31.73
2018-03-26T05:20:32.249Z,27.17
2018-03-26T05:23:00.832Z,31.92
2018-03-26T05:25:28.683Z,28.77
2018-03-26T05:27:56.385Z,28.17
2018-03-26T05:30:24.184Z,27.48
2018-03-26T05:32:51.976Z,30.52
2018-03-26T05:35:19.889Z,31.70
2018-03-26T05:37:47.640Z,27.08
2018-03-26T05:40:15.488Z,27.55
2018-03-26T05:42:43.339Z,29.12
2018-03-26T05:45:11.191Z,30.02
2018-03-26T05:47:39.041Z,26.30
2018-03-26T05:50:06.896Z,30.05
2018-03-26T05:52:34.749Z,28.33
2018-03-26T05:55:02.599Z,29.30
2018-03-26T05:57:30.451Z,29.48
2018-03-26T05:59:58.315Z,29.58
2018-03-26T06:02:26.155Z,28.60
2018-03-26T06:04:54.007Z,29.10
2018-03-26T06:07:21.860Z,29.37
2018-03-26T06:09:49.709Z,29.20
2018-03-26T06:12:17.561Z,28.30
2018-03-26T06:14:45.412Z,29.42
2018-03-26T06:17:15.108Z,31.00
2018-03-26T06:19:42.959Z,30.92
2018-03-26T06:22:10.812Z,26.08
2018-03-26T06:24:38.561Z,29.77
2018-03-26T06:27:06.414Z,30.12
2018-03-26T06:29:34.266Z,30.02
2018-03-26T06:32:02.119Z,30.50
2018-03-26T06:34:29.971Z,29.37
2018-03-26T06:40:07.194Z,28.93
2018-03-26T06:42:34.998Z,27.48
2018-03-26T06:45:02.846Z,29.17
2018-03-26T06:47:30.596Z,31.13
2018-03-26T06:49:58.345Z,33.70
2018-03-26T06:52:26.198Z,32.87
2018-03-26T06:54:54.049Z,34.05
2018-03-26T06:57:21.902Z,32.53
2018-03-26T06:59:49.651Z,32.00
2018-03-26T07:02:17.546Z,33.73
2018-03-26T07:04:45.351Z,34.30
2018-03-26T07:07:13.206Z,30.43
2018-03-26T07:09:40.935Z,32.70
2018-03-26T07:12:08.804Z,31.02
2018-03-26T07:14:36.658Z,36.33
2018-03-26T07:17:04.411Z,33.73
2018-03-26T07:19:32.259Z,31.57
2018-03-26T07:22:00.009Z,30.53
2018-03-26T07:24:27.861Z,31.00
2018-03-26T07:26:55.714Z,34.20
2018-03-26T07:29:23.462Z,32.80
2018-03-26T07:31:51.313Z,32.10
2018-03-26T07:34:19.036Z,32.37
2018-03-26T07:36:46.813Z,30.70
2018-03-26T07:39:14.562Z,34.73
2018-03-26T07:41:42.413Z,34.27
2018-03-26T07:44:10.162Z,32.87
2018-03-26T07:46:37.914Z,33.47
2018-03-26T07:49:05.766Z,32.07
2018-03-26T07:51:33.452Z,34.10
2018-03-26T07:54:01.988Z,36.10
2018-03-26T07:56:29.836Z,33.93
2018-03-26T07:58:57.583Z,32.50
2018-03-26T08:01:25.432Z,33.53
2018-03-26T08:03:53.183Z,35.10
2018-03-26T08:06:20.932Z,35.70
2018-03-26T08:08:48.784Z,32.80
2018-03-26T08:11:16.532Z,37.33
2018-03-26T08:13:44.364Z,33.50
2018-03-26T08:16:12.236Z,36.73
2018-03-26T08:18:39.986Z,37.70
2018-03-26T08:21:07.842Z,35.57
2018-03-26T08:23:35.694Z,39.43
2018-03-26T08:26:03.547Z,33.83
2018-03-26T08:28:31.228Z,34.93
2018-03-26T08:30:59.782Z,32.90
2018-03-26T08:33:27.610Z,33.77
2018-03-26T08:35:55.332Z,34.73
2018-03-26T08:38:23.215Z,35.30
2018-03-26T08:40:51.064Z,34.33
2018-03-26T08:43:18.779Z,34.07
2018-03-26T08:45:46.562Z,30.40
2018-03-26T08:48:14.313Z,33.67
2018-03-26T08:50:42.165Z,33.50
2018-03-26T08:53:10.015Z,35.93
2018-03-26T08:55:37.870Z,29.63
2018-03-26T08:58:05.724Z,34.47
2018-03-26T09:00:33.578Z,34.13
2018-03-26T09:03:01.308Z,30.67
2018-03-26T09:05:28.990Z,37.10
2018-03-26T09:07:57.638Z,35.73
2018-03-26T09:10:25.396Z,35.57
2018-03-26T09:12:53.345Z,33.93
2018-03-26T09:15:21.195Z,34.93
2018-03-26T09:17:48.942Z,32.13
2018-03-26T09:20:16.803Z,32.73
2018-03-26T09:22:46.285Z,32.53
2018-03-26T09:25:14.041Z,34.43
2018-03-26T09:27:41.891Z,36.17
2018-03-26T09:30:09.745Z,34.47
2018-03-26T09:32:37.593Z,33.40
2018-03-26T09:35:05.446Z,32.33
2018-03-26T09:37:33.195Z,34.67
2018-03-26T09:40:01.047Z,33.83
2018-03-26T09:42:28.799Z,28.73
2018-03-26T09:44:56.646Z,36.20
2018-03-26T09:47:24.499Z,32.80
2018-03-26T09:49:52.351Z,33.67
2018-03-26T09:52:20.203Z,33.00
2018-03-26T09:54:48.155Z,34.63
2018-03-26T09:57:16.008Z,32.43
2018-03-26T09:59:43.858Z,32.27
2018-03-26T10:02:11.609Z,34.23
2018-03-26T10:04:39.461Z,32.27
2018-03-26T10:07:07.323Z,34.57
2018-03-26T10:09:35.169Z,33.40
2018-03-26T10:12:03.018Z,27.23
2018-03-26T10:14:32.023Z,23.00
2018-03-26T10:16:59.950Z,23.60
2018-03-26T10:19:27.831Z,31.50
2018-03-26T10:21:56.474Z,32.63
2018-03-26T10:24:24.222Z,31.30
2018-03-26T10:26:52.074Z,32.10
2018-03-26T10:29:19.766Z,31.27
2018-03-26T10:31:47.572Z,31.17
2018-03-26T10:34:15.424Z,35.17
2018-03-26T10:36:43.275Z,32.33
2018-03-26T10:39:11.012Z,33.80
2018-03-26T10:41:38.981Z,30.03
2018-03-26T10:44:06.655Z,28.27
2018-03-26T10:46:35.199Z,27.57
2018-03-26T10:49:03.052Z,25.07
2018-03-26T10:51:30.900Z,28.67
2018-03-26T10:53:58.751Z,34.53
2018-03-26T10:56:26.603Z,23.37
2018-03-26T10:58:54.455Z,32.17
2018-03-26T11:01:22.176Z,34.53
2018-03-26T11:03:49.963Z,33.30
2018-03-26T11:06:17.805Z,30.23
2018-03-26T11:08:45.556Z,17.03
2018-03-26T11:11:13.408Z,18.37
2018-03-26T11:13:41.362Z,16.90
2018-03-26T11:16:09.520Z,27.83
2018-03-26T11:18:37.271Z,27.23
2018-03-26T11:21:05.124Z,26.50
2018-03-26T11:23:32.992Z,30.50
2018-03-26T11:26:01.651Z,34.33
2018-03-26T11:28:29.337Z,27.60
2018-03-26T11:30:57.081Z,30.47
2018-03-26T11:33:25.716Z,27.03
2018-03-26T11:35:53.564Z,19.00
2018-03-26T11:38:21.416Z,14.00
2018-03-26T11:40:49.209Z,20.40
2018-03-26T11:43:17.119Z,21.30
2018-03-26T11:45:45.073Z,18.00
2018-03-26T11:48:12.927Z,21.30
2018-03-26T11:50:40.879Z,21.27
2018-03-26T11:53:08.834Z,21.97
2018-03-26T11:55:36.585Z,25.80
2018-03-26T11:58:04.458Z,27.40
2018-03-26T12:00:33.109Z,22.83
2018-03-26T12:03:00.859Z,21.97
2018-03-26T12:05:28.609Z,24.53
2018-03-26T12:07:56.400Z,29.07
2018-03-26T12:10:24.214Z,22.47
2018-03-26T12:12:52.165Z,29.53
2018-03-26T12:15:20.019Z,31.63
2018-03-26T12:17:47.865Z,18.07
2018-03-26T12:20:27.492Z,26.10
2018-03-26T12:22:55.361Z,18.87
2018-03-26T12:25:24.046Z,26.60
2018-03-26T12:28:03.539Z,28.27
2018-03-26T12:30:31.393Z,28.00
2018-03-26T12:32:59.243Z,31.67
2018-03-26T12:35:38.781Z,28.00
2018-03-26T12:38:06.620Z,24.27
2018-03-26T12:40:46.347Z,24.67
2018-03-26T12:43:14.097Z,28.13
2018-03-26T12:45:53.726Z,25.70
2018-03-26T12:48:21.576Z,22.50
2018-03-26T12:51:01.306Z,27.27
2018-03-26T12:53:29.364Z,27.20
2018-03-26T12:55:57.214Z,26.20
2018-03-26T12:58:47.080Z,34.40
2018-03-26T13:01:26.911Z,30.17
2018-03-26T13:03:54.767Z,35.93
2018-03-26T13:06:22.618Z,28.30
2018-03-26T13:08:50.569Z,28.97
2018-03-26T13:11:18.421Z,32.67
2018-03-26T13:13:46.196Z,29.40
2018-03-26T13:16:14.790Z,27.40
2018-03-26T13:18:42.804Z,32.07
2018-03-26T13:21:10.648Z,28.00
2018-03-26T13:23:38.584Z,27.07
2018-03-26T13:26:06.454Z,28.57
2018-03-26T13:28:34.206Z,39.10
2018-03-26T13:31:02.055Z,35.20
2018-03-26T13:33:29.908Z,31.00
2018-03-26T13:35:57.760Z,23.90
2018-03-26T13:38:25.509Z,27.20
2018-03-26T13:40:53.361Z,30.20
2018-03-26T13:43:21.219Z,28.77
2018-03-26T13:45:49.720Z,31.87
2018-03-26T13:48:17.631Z,28.77
2018-03-26T13:50:45.381Z,29.60
2018-03-26T13:53:13.348Z,31.70
2018-03-26T13:55:41.902Z,30.50
2018-03-26T13:58:09.652Z,27.93
2018-03-26T14:00:37.376Z,31.50
2018-03-26T14:03:05.361Z,32.03
2018-03-26T14:05:33.214Z,31.93
2018-03-26T14:08:01.074Z,30.60
2018-03-26T14:10:41.612Z,31.63
2018-03-26T14:13:21.451Z,33.37
2018-03-26T14:16:01.171Z,33.37
2018-03-26T14:18:28.925Z,32.40
2018-03-26T14:20:56.772Z,35.43
2018-03-26T14:23:24.627Z,31.83
2018-03-26T14:25:52.475Z,30.23
2018-03-26T14:28:20.168Z,31.90
2018-03-26T14:30:48.075Z,34.07
2018-03-26T14:33:16.030Z,30.50
2018-03-26T14:35:44.086Z,29.30
2018-03-26T14:38:11.938Z,32.10
2018-03-26T14:40:39.791Z,34.33
2018-03-26T14:43:07.652Z,35.00
2018-03-26T14:45:35.533Z,37.33
2018-03-26T14:48:03.453Z,40.37
2018-03-26T14:50:31.204Z,36.93
2018-03-26T14:52:58.988Z,38.73
2018-03-26T14:55:27.505Z,37.50
2018-03-26T14:57:55.273Z,36.00
2018-03-26T15:00:23.118Z,37.33
2018-03-26T15:02:50.923Z,36.93
2018-03-26T15:05:18.721Z,36.17
2018-03-26T15:07:46.683Z,37.07
2018-03-26T15:10:15.152Z,38.10
2018-03-26T15:12:42.997Z,39.07
2018-03-26T15:15:10.844Z,37.90
2018-03-26T15:17:38.701Z,38.93
2018-03-26T15:20:06.551Z,39.30
2018-03-26T15:22:34.284Z,37.97
2018-03-26T15:25:02.102Z,37.33
2018-03-26T15:27:29.925Z,34.83
2018-03-26T15:29:57.852Z,37.37
2018-03-26T15:32:25.607Z,37.97
2018-03-26T15:34:53.455Z,37.80
2018-03-26T15:37:21.305Z,35.00
2018-03-26T15:39:49.161Z,36.90
2018-03-26T15:42:16.911Z,39.60
2018-03-26T15:44:44.661Z,35.93
2018-03-26T15:47:12.512Z,36.20
2018-03-26T15:49:40.374Z,35.60
2018-03-26T15:52:08.223Z,34.87
2018-03-26T15:54:35.916Z,36.93
2018-03-26T15:57:03.652Z,42.57
2018-03-26T15:59:31.463Z,41.07
2018-03-26T16:01:58.803Z,38.77
2018-03-26T16:04:26.654Z,42.17
2018-03-26T16:06:54.401Z,36.73
2018-03-26T16:09:22.254Z,56.87
2018-03-26T16:11:50.105Z,40.13
2018-03-26T16:14:17.780Z,39.03
2018-03-26T16:16:46.268Z,38.90
2018-03-26T16:19:13.970Z,41.60
2018-03-26T16:21:41.719Z,38.90
2018-03-26T16:24:09.569Z,42.93
2018-03-26T16:26:37.423Z,38.30
2018-03-26T16:29:05.320Z,40.30
2018-03-26T16:31:33.333Z,39.23
2018-03-26T16:34:01.184Z,35.77
2018-03-26T16:36:28.920Z,38.57
2018-03-26T16:38:56.686Z,38.83
2018-03-26T16:41:37.540Z,37.37
2018-03-26T16:44:05.288Z,43.70
2018-03-26T16:46:33.139Z,42.70
2018-03-26T16:49:00.992Z,41.20
2018-03-26T16:51:28.739Z,39.97
2018-03-26T16:53:56.607Z,44.60
2018-03-26T16:56:24.401Z,42.40
2018-03-26T16:58:52.196Z,38.20
2018-03-26T17:01:24.366Z,39.03
2018-03-26T17:03:52.312Z,37.20
2018-03-26T17:06:20.984Z,36.90
2018-03-26T17:08:49.646Z,38.97
2018-03-26T17:11:17.602Z,37.10
2018-03-26T17:13:45.448Z,37.70
2018-03-26T17:16:13.232Z,34.47
2018-03-26T17:18:41.156Z,35.70
2018-03-26T17:21:12.490Z,36.80
2018-03-26T17:23:40.342Z,35.73
2018-03-26T17:26:08.176Z,33.03
2018-03-26T17:28:36.150Z,34.57
2018-03-26T17:31:04.213Z,35.13
2018-03-26T17:33:32.367Z,36.53
2018-03-26T17:36:00.285Z,40.00
2018-03-26T17:38:28.273Z,38.90
2018-03-26T17:40:56.125Z,35.80
2018-03-26T17:43:23.976Z,39.20
2018-03-26T17:45:51.931Z,37.47
2018-03-26T17:48:19.786Z,35.60
2018-03-26T17:50:48.453Z,35.30
2018-03-26T17:53:16.409Z,33.43
2018-03-26T17:55:44.261Z,35.23
2018-03-26T17:58:12.120Z,36.20
2018-03-26T18:00:41.142Z,36.60
2018-03-26T18:03:09.349Z,36.73
2018-03-26T18:05:37.205Z,34.77
2018-03-26T18:08:05.976Z,34.77
2018-03-26T18:10:33.838Z,35.40
2018-03-26T18:13:01.783Z,32.37
2018-03-26T18:15:29.642Z,36.40
2018-03-26T18:17:58.306Z,35.13
2018-03-26T18:20:26.157Z,35.73
2018-03-26T18:22:54.213Z,34.50
2018-03-26T18:25:22.169Z,37.60
2018-03-26T18:27:50.020Z,37.03
2018-03-26T18:30:17.973Z,34.03
2018-03-26T18:32:46.030Z,34.57
2018-03-26T18:35:13.996Z,37.87
2018-03-26T18:37:42.655Z,37.07
2018-03-26T18:40:11.326Z,33.63
2018-03-26T18:42:39.394Z,33.50
2018-03-26T18:45:08.057Z,33.17
2018-03-26T18:47:36.112Z,36.50
2018-03-26T18:50:04.171Z,37.40
2018-03-26T18:52:32.124Z,35.97
2018-03-26T18:55:00.077Z,36.10
2018-03-26T18:57:27.928Z,35.60
2018-03-26T18:59:56.601Z,38.27
2018-03-26T19:02:24.556Z,33.20
2018-03-26T19:04:53.326Z,34.43
2018-03-26T19:07:21.128Z,34.70
2018-03-26T19:09:48.911Z,38.30
2018-03-26T19:12:16.885Z,37.03
2018-03-26T19:14:44.836Z,37.87
2018-03-26T19:17:12.790Z,38.77
2018-03-26T19:19:40.745Z,40.57
2018-03-26T19:22:09.917Z,38.37
2018-03-26T19:24:37.944Z,39.77
2018-03-26T19:27:05.840Z,41.37
2018-03-26T19:29:33.896Z,41.50
2018-03-26T19:32:01.755Z,40.90
2018-03-26T19:34:30.393Z,43.27
2018-03-26T19:36:58.268Z,46.00
2018-03-26T19:39:26.226Z,41.43
2018-03-26T19:41:54.176Z,41.27
2018-03-26T19:44:21.985Z,42.90
2018-03-26T19:46:49.983Z,41.90
2018-03-26T19:49:17.834Z,43.40
2018-03-26T19:51:45.891Z,40.10
2018-03-26T19:54:13.845Z,43.07
2018-03-26T19:56:41.695Z,40.87
2018-03-26T19:59:09.548Z,39.57
2018-03-26T20:01:37.613Z,39.80
2018-03-26T20:04:05.459Z,41.57
2018-03-26T20:06:33.416Z,39.33
2018-03-26T20:09:02.085Z,42.70
2018-03-26T20:11:29.938Z,40.57
2018-03-26T20:13:57.892Z,38.00
2018-03-26T20:16:25.741Z,45.60
2018-03-26T20:18:53.696Z,41.63
2018-03-26T20:21:21.548Z,41.97
2018-03-26T20:23:49.501Z,41.90
2018-03-26T20:26:17.355Z,42.87
2018-03-26T20:28:45.209Z,42.77
2018-03-26T20:31:13.033Z,41.53
2018-03-26T20:33:40.820Z,44.00
2018-03-26T20:36:09.452Z,40.13
2018-03-26T20:38:37.433Z,42.37
2018-03-26T20:41:05.287Z,41.40
2018-03-26T20:43:33.239Z,43.17
2018-03-26T20:46:01.194Z,41.23
2018-03-26T20:48:29.045Z,41.13
2018-03-26T20:50:56.998Z,41.63
2018-03-26T20:53:24.851Z,41.93
2018-03-26T20:55:52.781Z,42.80
2018-03-26T20:58:20.581Z,41.67
2018-03-26T21:00:48.507Z,46.77
2018-03-26T21:03:16.465Z,42.50
2018-03-26T21:05:44.315Z,45.00
2018-03-26T21:08:12.166Z,44.60
2018-03-26T21:10:40.018Z,42.97
2018-03-26T21:13:07.870Z,46.47
2018-03-26T21:15:35.799Z,45.17
2018-03-26T21:18:03.708Z,42.77
2018-03-26T21:20:31.632Z,43.83
2018-03-26T21:22:59.585Z,42.40
2018-03-26T21:25:27.542Z,45.77
2018-03-26T21:27:55.404Z,44.77
2018-03-26T21:30:24.068Z,42.73
2018-03-26T21:32:52.734Z,45.93
2018-03-26T21:35:20.584Z,43.30
2018-03-26T21:37:48.419Z,47.07
2018-03-26T21:40:16.287Z,43.20
2018-03-26T21:42:44.244Z,44.43
2018-03-26T21:45:12.197Z,42.37
2018-03-26T21:47:39.988Z,41.80
2018-03-26T21:50:07.798Z,45.97
2018-03-26T21:52:35.646Z,41.40
2018-03-26T21:55:03.497Z,43.00
2018-03-26T21:57:31.180Z,45.57
2018-03-26T21:59:59.713Z,46.87
2018-03-26T22:02:27.572Z,50.00
2018-03-26T22:04:55.416Z,47.87
2018-03-26T22:07:23.128Z,49.73
2018-03-26T22:09:50.916Z,48.50
2018-03-26T22:12:18.767Z,49.20
2018-03-26T22:14:46.617Z,46.93
2018-03-26T22:17:14.471Z,47.10
2018-03-26T22:19:42.376Z,48.80
2018-03-26T22:22:10.112Z,44.73
2018-03-26T22:24:37.864Z,50.07
2018-03-26T22:27:05.673Z,47.40
2018-03-26T22:29:33.392Z,48.77
2018-03-26T22:32:01.103Z,46.70
2018-03-26T22:34:29.740Z,47.00
2018-03-26T22:36:57.493Z,53.00
2018-03-26T22:39:25.343Z,51.03
2018-03-26T22:41:53.090Z,51.03
2018-03-26T22:44:20.942Z,47.80
2018-03-26T22:46:48.695Z,49.00
2018-03-26T22:49:16.547Z,48.27
2018-03-26T22:51:44.295Z,47.70
2018-03-26T22:54:12.146Z,47.53
2018-03-26T22:56:39.996Z,48.43
2018-03-26T22:59:07.850Z,47.93
2018-03-26T23:01:35.600Z,45.80
2018-03-26T23:04:03.349Z,48.77
2018-03-26T23:06:31.303Z,45.67
2018-03-26T23:08:59.054Z,45.17
2018-03-26T23:11:26.903Z,51.93
2018-03-26T23:13:54.653Z,51.23
2018-03-26T23:16:22.506Z,46.23
2018-03-26T23:18:50.257Z,52.20
2018-03-26T23:21:18.107Z,48.20
2018-03-26T23:23:45.855Z,46.53
2018-03-26T23:26:13.707Z,51.07
2018-03-26T23:28:41.558Z,43.80
2018-03-26T23:31:09.306Z,46.53
2018-03-26T23:33:37.163Z,47.73
2018-03-26T23:36:05.013Z,47.03
2018-03-26T23:38:32.763Z,48.20
2018-03-26T23:41:00.615Z,51.10
2018-03-26T23:43:28.474Z,50.40
2018-03-26T23:45:56.256Z,49.13
2018-03-26T23:48:24.068Z,44.53
2018-03-26T23:50:51.816Z,49.83
2018-03-26T23:53:19.670Z,46.47
2018-03-26T23:55:47.417Z,47.13
2018-03-26T23:58:15.270Z,51.87
